Terminal Aerodrome Forecast
Issued by NWS

Home | Current Version | Previous Version | Text Only | Print | Product List | Glossary On
Versions: 1 2 3 4 5 6 7 8 9 10 11 12 13 14 15
795
FTUS42 KFFC 120818 AAA
TAFRYY
TAF AMD
KRYY 120818Z 1208/1306 00000KT P6SM SCT070 BKN150
     FM121100 00000KT P6SM BKN040
     FM121500 VRB03KT P6SM BKN025
     FM121800 27006KT P6SM BKN035
     FM122100 28010G18KT P6SM SCT040
     FM130400 31011G20KT P6SM FEW050
      AMD NOT SKED TIL 121200=

USA.gov is the U.S. government's official web portal to all federal, state and local government web resources and services.